sensor_id;sensor_type;location;lat;lon;timestamp;P1;durP1;ratioP1;P2;durP2;ratioP2
23376;SDS011;14353;46.070;13.222;2023-05-07T00:00:38;3.17;;;2.58;;
23376;SDS011;14353;46.070;13.222;2023-05-07T00:03:05;3.13;;;2.88;;
23376;SDS011;14353;46.070;13.222;2023-05-07T00:05:31;2.80;;;2.60;;
23376;SDS011;14353;46.070;13.222;2023-05-07T00:07:57;2.65;;;2.45;;
23376;SDS011;14353;46.070;13.222;2023-05-07T00:10:23;2.70;;;2.50;;
23376;SDS011;14353;46.070;13.222;2023-05-07T00:12:49;3.10;;;2.78;;
23376;SDS011;14353;46.070;13.222;2023-05-07T00:15:14;2.90;;;2.70;;
23376;SDS011;14353;46.070;13.222;2023-05-07T00:17:40;2.60;;;2.40;;
23376;SDS011;14353;46.070;13.222;2023-05-07T00:20:06;2.90;;;2.70;;
23376;SDS011;14353;46.070;13.222;2023-05-07T00:22:35;3.08;;;2.80;;
23376;SDS011;14353;46.070;13.222;2023-05-07T00:25:00;2.80;;;2.60;;
23376;SDS011;14353;46.070;13.222;2023-05-07T00:27:26;2.90;;;2.70;;
23376;SDS011;14353;46.070;13.222;2023-05-07T00:29:52;2.97;;;2.78;;
23376;SDS011;14353;46.070;13.222;2023-05-07T00:32:17;2.92;;;2.72;;
23376;SDS011;14353;46.070;13.222;2023-05-07T00:34:43;2.92;;;2.63;;
23376;SDS011;14353;46.070;13.222;2023-05-07T00:37:09;2.70;;;2.50;;
23376;SDS011;14353;46.070;13.222;2023-05-07T00:39:35;3.10;;;2.80;;
23376;SDS011;14353;46.070;13.222;2023-05-07T00:42:01;2.58;;;2.38;;
23376;SDS011;14353;46.070;13.222;2023-05-07T00:44:27;2.72;;;2.53;;
23376;SDS011;14353;46.070;13.222;2023-05-07T00:46:54;2.80;;;2.60;;
23376;SDS011;14353;46.070;13.222;2023-05-07T00:49:22;2.70;;;2.50;;
23376;SDS011;14353;46.070;13.222;2023-05-07T00:51:54;2.88;;;2.67;;
23376;SDS011;14353;46.070;13.222;2023-05-07T00:54:19;3.10;;;2.90;;
23376;SDS011;14353;46.070;13.222;2023-05-07T00:56:46;2.90;;;2.70;;
23376;SDS011;14353;46.070;13.222;2023-05-07T00:59:12;2.85;;;2.65;;
23376;SDS011;14353;46.070;13.222;2023-05-07T01:01:38;2.88;;;2.67;;
23376;SDS011;14353;46.070;13.222;2023-05-07T01:04:04;2.80;;;2.60;;
23376;SDS011;14353;46.070;13.222;2023-05-07T01:06:30;2.70;;;2.50;;
23376;SDS011;14353;46.070;13.222;2023-05-07T01:08:57;2.55;;;2.35;;
23376;SDS011;14353;46.070;13.222;2023-05-07T01:11:23;2.85;;;2.65;;
23376;SDS011;14353;46.070;13.222;2023-05-07T01:13:50;3.03;;;2.83;;
23376;SDS011;14353;46.070;13.222;2023-05-07T01:16:16;3.05;;;2.83;;
23376;SDS011;14353;46.070;13.222;2023-05-07T01:18:42;2.70;;;2.50;;
23376;SDS011;14353;46.070;13.222;2023-05-07T01:21:08;2.75;;;2.55;;
23376;SDS011;14353;46.070;13.222;2023-05-07T01:23:35;3.15;;;2.95;;
23376;SDS011;14353;46.070;13.222;2023-05-07T01:26:02;2.80;;;2.60;;
23376;SDS011;14353;46.070;13.222;2023-05-07T01:28:27;2.63;;;2.42;;
23376;SDS011;14353;46.070;13.222;2023-05-07T01:30:54;2.70;;;2.50;;
23376;SDS011;14353;46.070;13.222;2023-05-07T01:33:23;2.72;;;2.53;;
23376;SDS011;14353;46.070;13.222;2023-05-07T01:35:51;2.63;;;2.42;;
23376;SDS011;14353;46.070;13.222;2023-05-07T01:38:18;3.03;;;2.83;;
23376;SDS011;14353;46.070;13.222;2023-05-07T01:40:45;2.88;;;2.67;;
23376;SDS011;14353;46.070;13.222;2023-05-07T01:43:11;2.95;;;2.75;;
23376;SDS011;14353;46.070;13.222;2023-05-07T01:45:37;2.85;;;2.65;;
23376;SDS011;14353;46.070;13.222;2023-05-07T01:48:03;2.72;;;2.53;;
23376;SDS011;14353;46.070;13.222;2023-05-07T01:50:29;2.70;;;2.50;;
23376;SDS011;14353;46.070;13.222;2023-05-07T01:52:56;2.58;;;2.38;;
23376;SDS011;14353;46.070;13.222;2023-05-07T01:55:22;2.97;;;2.78;;
23376;SDS011;14353;46.070;13.222;2023-05-07T01:57:48;2.90;;;2.70;;
23376;SDS011;14353;46.070;13.222;2023-05-07T02:00:14;2.80;;;2.60;;
23376;SDS011;14353;46.070;13.222;2023-05-07T02:02:40;2.60;;;2.40;;
23376;SDS011;14353;46.070;13.222;2023-05-07T02:05:06;2.90;;;2.70;;
23376;SDS011;14353;46.070;13.222;2023-05-07T02:07:32;2.83;;;2.63;;
23376;SDS011;14353;46.070;13.222;2023-05-07T02:09:58;2.67;;;2.47;;
23376;SDS011;14353;46.070;13.222;2023-05-07T02:12:23;2.80;;;2.60;;
23376;SDS011;14353;46.070;13.222;2023-05-07T02:14:49;2.72;;;2.53;;
23376;SDS011;14353;46.070;13.222;2023-05-07T02:17:15;3.00;;;2.50;;
23376;SDS011;14353;46.070;13.222;2023-05-07T02:19:40;2.90;;;2.70;;
23376;SDS011;14353;46.070;13.222;2023-05-07T02:22:06;2.85;;;2.65;;
23376;SDS011;14353;46.070;13.222;2023-05-07T02:24:32;2.88;;;2.67;;
23376;SDS011;14353;46.070;13.222;2023-05-07T02:26:58;2.75;;;2.55;;
23376;SDS011;14353;46.070;13.222;2023-05-07T02:29:23;2.65;;;2.45;;
23376;SDS011;14353;46.070;13.222;2023-05-07T02:31:49;2.95;;;2.75;;
23376;SDS011;14353;46.070;13.222;2023-05-07T02:34:18;2.88;;;2.65;;
23376;SDS011;14353;46.070;13.222;2023-05-07T02:36:44;2.60;;;2.40;;
23376;SDS011;14353;46.070;13.222;2023-05-07T02:39:10;2.83;;;2.63;;
23376;SDS011;14353;46.070;13.222;2023-05-07T02:41:37;2.90;;;2.70;;
23376;SDS011;14353;46.070;13.222;2023-05-07T02:44:02;2.80;;;2.60;;
23376;SDS011;14353;46.070;13.222;2023-05-07T02:46:28;2.70;;;2.50;;
23376;SDS011;14353;46.070;13.222;2023-05-07T02:48:54;2.83;;;2.63;;
23376;SDS011;14353;46.070;13.222;2023-05-07T02:51:20;2.85;;;2.65;;
23376;SDS011;14353;46.070;13.222;2023-05-07T02:53:47;2.70;;;2.50;;
23376;SDS011;14353;46.070;13.222;2023-05-07T02:56:13;3.15;;;2.95;;
23376;SDS011;14353;46.070;13.222;2023-05-07T02:58:39;2.40;;;2.20;;
23376;SDS011;14353;46.070;13.222;2023-05-07T03:01:07;2.70;;;2.50;;
23376;SDS011;14353;46.070;13.222;2023-05-07T03:03:33;2.83;;;2.63;;
23376;SDS011;14353;46.070;13.222;2023-05-07T03:05:59;2.78;;;2.58;;
23376;SDS011;14353;46.070;13.222;2023-05-07T03:08:26;2.78;;;2.58;;
23376;SDS011;14353;46.070;13.222;2023-05-07T03:10:51;2.63;;;2.42;;
23376;SDS011;14353;46.070;13.222;2023-05-07T03:13:17;2.85;;;2.65;;
23376;SDS011;14353;46.070;13.222;2023-05-07T03:15:43;2.85;;;2.65;;
23376;SDS011;14353;46.070;13.222;2023-05-07T03:18:08;2.60;;;2.40;;
23376;SDS011;14353;46.070;13.222;2023-05-07T03:20:35;2.88;;;2.67;;
23376;SDS011;14353;46.070;13.222;2023-05-07T03:23:01;2.47;;;2.28;;
23376;SDS011;14353;46.070;13.222;2023-05-07T03:25:27;2.83;;;2.63;;
23376;SDS011;14353;46.070;13.222;2023-05-07T03:27:55;2.65;;;2.45;;
23376;SDS011;14353;46.070;13.222;2023-05-07T03:30:21;3.03;;;2.72;;
23376;SDS011;14353;46.070;13.222;2023-05-07T03:32:46;2.60;;;2.40;;
23376;SDS011;14353;46.070;13.222;2023-05-07T03:35:12;2.60;;;2.40;;
23376;SDS011;14353;46.070;13.222;2023-05-07T03:37:38;2.70;;;2.50;;
23376;SDS011;14353;46.070;13.222;2023-05-07T03:40:04;2.88;;;2.67;;
23376;SDS011;14353;46.070;13.222;2023-05-07T03:42:30;2.50;;;2.30;;
23376;SDS011;14353;46.070;13.222;2023-05-07T03:44:56;2.70;;;2.50;;
23376;SDS011;14353;46.070;13.222;2023-05-07T03:47:22;2.42;;;2.22;;
23376;SDS011;14353;46.070;13.222;2023-05-07T03:49:47;2.80;;;2.60;;
23376;SDS011;14353;46.070;13.222;2023-05-07T03:52:14;2.75;;;2.55;;
23376;SDS011;14353;46.070;13.222;2023-05-07T03:54:40;2.17;;;2.05;;
23376;SDS011;14353;46.070;13.222;2023-05-07T03:57:06;2.70;;;2.50;;
23376;SDS011;14353;46.070;13.222;2023-05-07T03:59:31;2.53;;;2.33;;
23376;SDS011;14353;46.070;13.222;2023-05-07T04:01:57;2.65;;;2.45;;
23376;SDS011;14353;46.070;13.222;2023-05-07T04:04:23;2.80;;;2.60;;
23376;SDS011;14353;46.070;13.222;2023-05-07T04:06:49;2.50;;;2.30;;
23376;SDS011;14353;46.070;13.222;2023-05-07T04:09:14;2.50;;;2.30;;
23376;SDS011;14353;46.070;13.222;2023-05-07T04:11:40;2.65;;;2.45;;
23376;SDS011;14353;46.070;13.222;2023-05-07T04:14:06;2.50;;;2.30;;
23376;SDS011;14353;46.070;13.222;2023-05-07T04:16:32;2.67;;;2.47;;
23376;SDS011;14353;46.070;13.222;2023-05-07T04:18:57;2.40;;;2.20;;
23376;SDS011;14353;46.070;13.222;2023-05-07T04:21:23;2.45;;;2.35;;
23376;SDS011;14353;46.070;13.222;2023-05-07T04:23:49;2.63;;;2.42;;
23376;SDS011;14353;46.070;13.222;2023-05-07T04:26:15;2.50;;;2.30;;
23376;SDS011;14353;46.070;13.222;2023-05-07T04:28:41;2.63;;;2.42;;
23376;SDS011;14353;46.070;13.222;2023-05-07T04:31:08;2.60;;;2.40;;
23376;SDS011;14353;46.070;13.222;2023-05-07T04:33:33;2.65;;;2.45;;
23376;SDS011;14353;46.070;13.222;2023-05-07T04:36:02;2.40;;;2.20;;
23376;SDS011;14353;46.070;13.222;2023-05-07T04:38:29;2.53;;;2.33;;
23376;SDS011;14353;46.070;13.222;2023-05-07T04:40:56;2.30;;;2.15;;
23376;SDS011;14353;46.070;13.222;2023-05-07T04:43:22;2.60;;;2.40;;
23376;SDS011;14353;46.070;13.222;2023-05-07T04:45:49;2.67;;;2.47;;
23376;SDS011;14353;46.070;13.222;2023-05-07T04:48:16;2.40;;;2.20;;
23376;SDS011;14353;46.070;13.222;2023-05-07T04:50:44;2.45;;;2.25;;
23376;SDS011;14353;46.070;13.222;2023-05-07T04:53:12;2.58;;;2.38;;
23376;SDS011;14353;46.070;13.222;2023-05-07T04:55:37;2.75;;;2.55;;
23376;SDS011;14353;46.070;13.222;2023-05-07T04:58:03;2.50;;;2.30;;
23376;SDS011;14353;46.070;13.222;2023-05-07T05:00:30;2.50;;;2.30;;
23376;SDS011;14353;46.070;13.222;2023-05-07T05:02:56;2.45;;;2.25;;
23376;SDS011;14353;46.070;13.222;2023-05-07T05:05:21;2.28;;;2.15;;
23376;SDS011;14353;46.070;13.222;2023-05-07T05:07:47;2.22;;;2.13;;
23376;SDS011;14353;46.070;13.222;2023-05-07T05:10:13;2.55;;;2.35;;
23376;SDS011;14353;46.070;13.222;2023-05-07T05:12:38;2.50;;;2.30;;
23376;SDS011;14353;46.070;13.222;2023-05-07T05:15:04;2.50;;;2.30;;
23376;SDS011;14353;46.070;13.222;2023-05-07T05:17:30;2.50;;;2.30;;
23376;SDS011;14353;46.070;13.222;2023-05-07T05:19:56;2.30;;;2.10;;
23376;SDS011;14353;46.070;13.222;2023-05-07T05:22:22;2.20;;;2.00;;
23376;SDS011;14353;46.070;13.222;2023-05-07T05:24:48;2.40;;;2.20;;
23376;SDS011;14353;46.070;13.222;2023-05-07T05:27:13;2.20;;;2.10;;
23376;SDS011;14353;46.070;13.222;2023-05-07T05:29:39;2.60;;;2.40;;
23376;SDS011;14353;46.070;13.222;2023-05-07T05:32:05;2.38;;;2.17;;
23376;SDS011;14353;46.070;13.222;2023-05-07T05:34:30;2.40;;;2.20;;
23376;SDS011;14353;46.070;13.222;2023-05-07T05:36:58;2.40;;;2.20;;
23376;SDS011;14353;46.070;13.222;2023-05-07T05:39:24;2.45;;;2.30;;
23376;SDS011;14353;46.070;13.222;2023-05-07T05:41:50;2.30;;;2.10;;
23376;SDS011;14353;46.070;13.222;2023-05-07T05:44:16;2.47;;;2.28;;
23376;SDS011;14353;46.070;13.222;2023-05-07T05:46:41;2.47;;;2.28;;
23376;SDS011;14353;46.070;13.222;2023-05-07T05:49:07;2.47;;;2.28;;
23376;SDS011;14353;46.070;13.222;2023-05-07T05:51:33;2.40;;;2.20;;
23376;SDS011;14353;46.070;13.222;2023-05-07T05:53:59;2.30;;;2.03;;
23376;SDS011;14353;46.070;13.222;2023-05-07T05:56:24;2.20;;;2.00;;
23376;SDS011;14353;46.070;13.222;2023-05-07T05:58:50;2.38;;;2.17;;
23376;SDS011;14353;46.070;13.222;2023-05-07T06:01:17;2.20;;;2.00;;
23376;SDS011;14353;46.070;13.222;2023-05-07T06:03:43;1.90;;;1.80;;
23376;SDS011;14353;46.070;13.222;2023-05-07T06:06:09;2.38;;;2.20;;
23376;SDS011;14353;46.070;13.222;2023-05-07T06:08:35;2.08;;;1.98;;
23376;SDS011;14353;46.070;13.222;2023-05-07T06:11:01;2.30;;;2.10;;
23376;SDS011;14353;46.070;13.222;2023-05-07T06:13:27;2.33;;;2.20;;
23376;SDS011;14353;46.070;13.222;2023-05-07T06:15:53;1.90;;;1.80;;
23376;SDS011;14353;46.070;13.222;2023-05-07T06:18:19;2.35;;;2.15;;
23376;SDS011;14353;46.070;13.222;2023-05-07T06:20:44;2.20;;;2.10;;
23376;SDS011;14353;46.070;13.222;2023-05-07T06:23:10;2.25;;;2.05;;
23376;SDS011;14353;46.070;13.222;2023-05-07T06:25:36;1.98;;;1.88;;
23376;SDS011;14353;46.070;13.222;2023-05-07T06:28:02;2.20;;;2.00;;
23376;SDS011;14353;46.070;13.222;2023-05-07T06:30:27;2.10;;;2.00;;
23376;SDS011;14353;46.070;13.222;2023-05-07T06:32:53;2.05;;;1.95;;
23376;SDS011;14353;46.070;13.222;2023-05-07T06:35:19;2.30;;;2.15;;
23376;SDS011;14353;46.070;13.222;2023-05-07T06:37:44;1.80;;;1.70;;
23376;SDS011;14353;46.070;13.222;2023-05-07T06:40:10;1.80;;;1.70;;
23376;SDS011;14353;46.070;13.222;2023-05-07T06:42:36;2.10;;;2.00;;
23376;SDS011;14353;46.070;13.222;2023-05-07T06:45:02;2.20;;;2.10;;
23376;SDS011;14353;46.070;13.222;2023-05-07T06:47:29;2.40;;;2.20;;
23376;SDS011;14353;46.070;13.222;2023-05-07T06:49:55;2.13;;;1.98;;
23376;SDS011;14353;46.070;13.222;2023-05-07T06:52:20;2.03;;;1.92;;
23376;SDS011;14353;46.070;13.222;2023-05-07T06:54:46;2.33;;;2.08;;
23376;SDS011;14353;46.070;13.222;2023-05-07T06:57:11;1.80;;;1.70;;
23376;SDS011;14353;46.070;13.222;2023-05-07T06:59:37;2.20;;;2.00;;
23376;SDS011;14353;46.070;13.222;2023-05-07T07:02:03;1.90;;;1.80;;
23376;SDS011;14353;46.070;13.222;2023-05-07T07:04:28;2.10;;;1.90;;
23376;SDS011;14353;46.070;13.222;2023-05-07T07:06:55;2.85;;;2.10;;
23376;SDS011;14353;46.070;13.222;2023-05-07T07:09:21;2.17;;;2.08;;
23376;SDS011;14353;46.070;13.222;2023-05-07T07:11:50;2.30;;;2.10;;
23376;SDS011;14353;46.070;13.222;2023-05-07T07:14:16;2.03;;;1.92;;
23376;SDS011;14353;46.070;13.222;2023-05-07T07:16:41;2.08;;;1.98;;
23376;SDS011;14353;46.070;13.222;2023-05-07T07:19:07;2.10;;;1.90;;
23376;SDS011;14353;46.070;13.222;2023-05-07T07:21:33;1.90;;;1.80;;
23376;SDS011;14353;46.070;13.222;2023-05-07T07:23:59;2.20;;;2.00;;
23376;SDS011;14353;46.070;13.222;2023-05-07T07:26:25;2.10;;;1.90;;
23376;SDS011;14353;46.070;13.222;2023-05-07T07:28:51;2.00;;;1.90;;
23376;SDS011;14353;46.070;13.222;2023-05-07T07:31:16;2.05;;;1.95;;
23376;SDS011;14353;46.070;13.222;2023-05-07T07:33:42;2.20;;;2.00;;
23376;SDS011;14353;46.070;13.222;2023-05-07T07:36:08;2.10;;;2.00;;
23376;SDS011;14353;46.070;13.222;2023-05-07T07:38:33;2.28;;;2.15;;
23376;SDS011;14353;46.070;13.222;2023-05-07T07:41:00;2.08;;;1.98;;
23376;SDS011;14353;46.070;13.222;2023-05-07T07:43:26;1.98;;;1.88;;
23376;SDS011;14353;46.070;13.222;2023-05-07T07:45:52;2.10;;;2.00;;
23376;SDS011;14353;46.070;13.222;2023-05-07T07:48:18;1.98;;;1.88;;
23376;SDS011;14353;46.070;13.222;2023-05-07T07:50:44;1.90;;;1.80;;
23376;SDS011;14353;46.070;13.222;2023-05-07T07:53:09;1.92;;;1.83;;
23376;SDS011;14353;46.070;13.222;2023-05-07T07:55:39;1.88;;;1.77;;
23376;SDS011;14353;46.070;13.222;2023-05-07T07:58:05;2.00;;;1.90;;
23376;SDS011;14353;46.070;13.222;2023-05-07T08:00:30;1.80;;;1.70;;
23376;SDS011;14353;46.070;13.222;2023-05-07T08:02:56;1.98;;;1.88;;
23376;SDS011;14353;46.070;13.222;2023-05-07T08:05:22;1.83;;;1.73;;
23376;SDS011;14353;46.070;13.222;2023-05-07T08:07:48;2.00;;;1.90;;
23376;SDS011;14353;46.070;13.222;2023-05-07T08:10:18;2.00;;;1.90;;
23376;SDS011;14353;46.070;13.222;2023-05-07T08:12:47;2.10;;;2.00;;
23376;SDS011;14353;46.070;13.222;2023-05-07T08:15:13;1.83;;;1.73;;
23376;SDS011;14353;46.070;13.222;2023-05-07T08:17:39;1.92;;;1.83;;
23376;SDS011;14353;46.070;13.222;2023-05-07T08:20:05;1.80;;;1.70;;
23376;SDS011;14353;46.070;13.222;2023-05-07T08:22:33;1.75;;;1.65;;
23376;SDS011;14353;46.070;13.222;2023-05-07T08:25:00;2.00;;;1.90;;
23376;SDS011;14353;46.070;13.222;2023-05-07T08:27:26;1.88;;;1.77;;
23376;SDS011;14353;46.070;13.222;2023-05-07T08:29:51;1.90;;;1.80;;
23376;SDS011;14353;46.070;13.222;2023-05-07T08:32:17;2.00;;;1.90;;
23376;SDS011;14353;46.070;13.222;2023-05-07T08:34:45;1.80;;;1.70;;
23376;SDS011;14353;46.070;13.222;2023-05-07T08:37:12;1.90;;;1.80;;
23376;SDS011;14353;46.070;13.222;2023-05-07T08:39:37;1.90;;;1.80;;
23376;SDS011;14353;46.070;13.222;2023-05-07T08:42:03;1.80;;;1.70;;
23376;SDS011;14353;46.070;13.222;2023-05-07T08:44:33;1.98;;;1.88;;
23376;SDS011;14353;46.070;13.222;2023-05-07T08:47:02;1.98;;;1.88;;
23376;SDS011;14353;46.070;13.222;2023-05-07T08:49:30;1.90;;;1.80;;
23376;SDS011;14353;46.070;13.222;2023-05-07T08:51:56;2.10;;;2.00;;
23376;SDS011;14353;46.070;13.222;2023-05-07T08:54:22;1.70;;;1.60;;
23376;SDS011;14353;46.070;13.222;2023-05-07T08:56:49;1.90;;;1.80;;
23376;SDS011;14353;46.070;13.222;2023-05-07T08:59:14;1.88;;;1.77;;
23376;SDS011;14353;46.070;13.222;2023-05-07T09:01:40;2.20;;;2.05;;
23376;SDS011;14353;46.070;13.222;2023-05-07T09:04:06;2.00;;;1.90;;
23376;SDS011;14353;46.070;13.222;2023-05-07T09:06:32;1.83;;;1.73;;
23376;SDS011;14353;46.070;13.222;2023-05-07T09:08:58;2.20;;;2.00;;
23376;SDS011;14353;46.070;13.222;2023-05-07T09:11:26;1.90;;;1.80;;
23376;SDS011;14353;46.070;13.222;2023-05-07T09:13:55;2.20;;;2.00;;
23376;SDS011;14353;46.070;13.222;2023-05-07T09:16:23;1.90;;;1.80;;
23376;SDS011;14353;46.070;13.222;2023-05-07T09:18:53;1.85;;;1.75;;
23376;SDS011;14353;46.070;13.222;2023-05-07T09:21:19;1.80;;;1.70;;
23376;SDS011;14353;46.070;13.222;2023-05-07T09:23:48;1.88;;;1.73;;
23376;SDS011;14353;46.070;13.222;2023-05-07T09:26:15;1.70;;;1.60;;
23376;SDS011;14353;46.070;13.222;2023-05-07T09:28:41;2.00;;;1.90;;
23376;SDS011;14353;46.070;13.222;2023-05-07T09:31:10;1.95;;;1.83;;
23376;SDS011;14353;46.070;13.222;2023-05-07T09:33:40;1.75;;;1.65;;
23376;SDS011;14353;46.070;13.222;2023-05-07T09:36:06;1.98;;;1.88;;
23376;SDS011;14353;46.070;13.222;2023-05-07T09:38:34;1.80;;;1.70;;
23376;SDS011;14353;46.070;13.222;2023-05-07T09:43:34;1.90;;;1.80;;
23376;SDS011;14353;46.070;13.222;2023-05-07T09:46:02;1.95;;;1.85;;
23376;SDS011;14353;46.070;13.222;2023-05-07T09:48:39;1.70;;;1.60;;
23376;SDS011;14353;46.070;13.222;2023-05-07T09:51:15;1.90;;;1.80;;
23376;SDS011;14353;46.070;13.222;2023-05-07T09:53:43;1.90;;;1.80;;
23376;SDS011;14353;46.070;13.222;2023-05-07T09:56:11;1.80;;;1.70;;
23376;SDS011;14353;46.070;13.222;2023-05-07T09:58:38;1.90;;;1.70;;
23376;SDS011;14353;46.070;13.222;2023-05-07T10:01:06;1.83;;;1.73;;
23376;SDS011;14353;46.070;13.222;2023-05-07T10:03:33;1.73;;;1.63;;
23376;SDS011;14353;46.070;13.222;2023-05-07T10:06:01;1.80;;;1.70;;
23376;SDS011;14353;46.070;13.222;2023-05-07T10:08:28;1.80;;;1.70;;
23376;SDS011;14353;46.070;13.222;2023-05-07T10:10:55;1.80;;;1.70;;
23376;SDS011;14353;46.070;13.222;2023-05-07T10:13:21;1.80;;;1.70;;
23376;SDS011;14353;46.070;13.222;2023-05-07T10:15:47;1.80;;;1.70;;
23376;SDS011;14353;46.070;13.222;2023-05-07T10:18:13;1.55;;;1.45;;
23376;SDS011;14353;46.070;13.222;2023-05-07T10:20:40;1.60;;;1.50;;
23376;SDS011;14353;46.070;13.222;2023-05-07T10:23:07;1.63;;;1.52;;
23376;SDS011;14353;46.070;13.222;2023-05-07T10:25:37;1.90;;;1.80;;
23376;SDS011;14353;46.070;13.222;2023-05-07T10:28:05;1.90;;;1.80;;
23376;SDS011;14353;46.070;13.222;2023-05-07T10:33:34;1.83;;;1.73;;
23376;SDS011;14353;46.070;13.222;2023-05-07T10:36:01;3.53;;;1.90;;
23376;SDS011;14353;46.070;13.222;2023-05-07T10:38:29;1.83;;;1.73;;
23376;SDS011;14353;46.070;13.222;2023-05-07T10:40:55;1.73;;;1.63;;
23376;SDS011;14353;46.070;13.222;2023-05-07T10:43:21;1.60;;;1.50;;
23376;SDS011;14353;46.070;13.222;2023-05-07T10:51:36;1.90;;;1.80;;
23376;SDS011;14353;46.070;13.222;2023-05-07T10:56:37;1.77;;;1.67;;
23376;SDS011;14353;46.070;13.222;2023-05-07T11:04:21;1.88;;;1.77;;
23376;SDS011;14353;46.070;13.222;2023-05-07T11:15:14;1.80;;;1.50;;
23376;SDS011;14353;46.070;13.222;2023-05-07T11:18:02;1.90;;;1.80;;
23376;SDS011;14353;46.070;13.222;2023-05-07T11:26:00;1.85;;;1.70;;
23376;SDS011;14353;46.070;13.222;2023-05-07T11:28:32;1.70;;;1.60;;
23376;SDS011;14353;46.070;13.222;2023-05-07T11:31:10;1.60;;;1.50;;
23376;SDS011;14353;46.070;13.222;2023-05-07T11:33:37;1.70;;;1.60;;
23376;SDS011;14353;46.070;13.222;2023-05-07T11:36:03;1.80;;;1.70;;
23376;SDS011;14353;46.070;13.222;2023-05-07T11:38:30;1.95;;;1.85;;
23376;SDS011;14353;46.070;13.222;2023-05-07T11:40:59;1.65;;;1.55;;
23376;SDS011;14353;46.070;13.222;2023-05-07T11:43:26;1.95;;;1.75;;
23376;SDS011;14353;46.070;13.222;2023-05-07T11:45:52;1.95;;;1.85;;
23376;SDS011;14353;46.070;13.222;2023-05-07T11:48:18;1.70;;;1.60;;
23376;SDS011;14353;46.070;13.222;2023-05-07T11:50:52;1.75;;;1.65;;
23376;SDS011;14353;46.070;13.222;2023-05-07T11:53:35;1.60;;;1.50;;
23376;SDS011;14353;46.070;13.222;2023-05-07T11:56:11;1.67;;;1.58;;
23376;SDS011;14353;46.070;13.222;2023-05-07T11:58:39;1.73;;;1.63;;
23376;SDS011;14353;46.070;13.222;2023-05-07T12:01:09;1.73;;;1.63;;
23376;SDS011;14353;46.070;13.222;2023-05-07T12:03:36;1.77;;;1.67;;
23376;SDS011;14353;46.070;13.222;2023-05-07T12:06:07;1.60;;;1.50;;
23376;SDS011;14353;46.070;13.222;2023-05-07T12:08:35;1.60;;;1.50;;
23376;SDS011;14353;46.070;13.222;2023-05-07T12:11:03;1.60;;;1.50;;
23376;SDS011;14353;46.070;13.222;2023-05-07T12:13:34;1.50;;;1.40;;
23376;SDS011;14353;46.070;13.222;2023-05-07T12:16:00;1.60;;;1.50;;
23376;SDS011;14353;46.070;13.222;2023-05-07T12:18:28;2.00;;;1.80;;
23376;SDS011;14353;46.070;13.222;2023-05-07T12:20:54;1.70;;;1.60;;
23376;SDS011;14353;46.070;13.222;2023-05-07T12:23:21;1.65;;;1.55;;
23376;SDS011;14353;46.070;13.222;2023-05-07T12:25:47;1.60;;;1.50;;
23376;SDS011;14353;46.070;13.222;2023-05-07T12:28:14;1.70;;;1.60;;
23376;SDS011;14353;46.070;13.222;2023-05-07T12:30:43;1.65;;;1.55;;
23376;SDS011;14353;46.070;13.222;2023-05-07T12:33:11;1.60;;;1.50;;
23376;SDS011;14353;46.070;13.222;2023-05-07T12:35:38;1.75;;;1.65;;
23376;SDS011;14353;46.070;13.222;2023-05-07T12:38:09;1.70;;;1.60;;
23376;SDS011;14353;46.070;13.222;2023-05-07T12:40:38;1.70;;;1.60;;
23376;SDS011;14353;46.070;13.222;2023-05-07T12:43:05;1.80;;;1.70;;
23376;SDS011;14353;46.070;13.222;2023-05-07T12:45:31;1.75;;;1.55;;
23376;SDS011;14353;46.070;13.222;2023-05-07T12:48:03;1.67;;;1.58;;
23376;SDS011;14353;46.070;13.222;2023-05-07T12:50:32;1.77;;;1.67;;
23376;SDS011;14353;46.070;13.222;2023-05-07T12:52:58;1.70;;;1.60;;
23376;SDS011;14353;46.070;13.222;2023-05-07T12:55:25;1.65;;;1.55;;
23376;SDS011;14353;46.070;13.222;2023-05-07T12:57:51;1.70;;;1.60;;
23376;SDS011;14353;46.070;13.222;2023-05-07T13:00:32;1.70;;;1.60;;
23376;SDS011;14353;46.070;13.222;2023-05-07T13:03:01;1.90;;;1.80;;
23376;SDS011;14353;46.070;13.222;2023-05-07T13:05:27;1.77;;;1.67;;
23376;SDS011;14353;46.070;13.222;2023-05-07T13:07:53;1.70;;;1.60;;
23376;SDS011;14353;46.070;13.222;2023-05-07T13:10:19;1.60;;;1.50;;
23376;SDS011;14353;46.070;13.222;2023-05-07T13:12:46;1.70;;;1.60;;
23376;SDS011;14353;46.070;13.222;2023-05-07T13:15:12;1.80;;;1.70;;
23376;SDS011;14353;46.070;13.222;2023-05-07T13:17:37;1.70;;;1.60;;
23376;SDS011;14353;46.070;13.222;2023-05-07T13:20:03;1.60;;;1.50;;
23376;SDS011;14353;46.070;13.222;2023-05-07T13:22:30;2.53;;;1.50;;
23376;SDS011;14353;46.070;13.222;2023-05-07T13:24:56;1.80;;;1.70;;
23376;SDS011;14353;46.070;13.222;2023-05-07T13:27:22;1.73;;;1.63;;
23376;SDS011;14353;46.070;13.222;2023-05-07T13:29:48;1.48;;;1.38;;
23376;SDS011;14353;46.070;13.222;2023-05-07T13:32:13;1.83;;;1.73;;
23376;SDS011;14353;46.070;13.222;2023-05-07T13:34:39;1.60;;;1.50;;
23376;SDS011;14353;46.070;13.222;2023-05-07T13:37:05;1.60;;;1.50;;
23376;SDS011;14353;46.070;13.222;2023-05-07T13:39:32;1.65;;;1.55;;
23376;SDS011;14353;46.070;13.222;2023-05-07T13:41:58;1.85;;;1.75;;
23376;SDS011;14353;46.070;13.222;2023-05-07T13:44:24;1.55;;;1.45;;
23376;SDS011;14353;46.070;13.222;2023-05-07T13:46:50;1.80;;;1.70;;
23376;SDS011;14353;46.070;13.222;2023-05-07T13:49:16;1.85;;;1.63;;
23376;SDS011;14353;46.070;13.222;2023-05-07T13:51:41;1.60;;;1.50;;
23376;SDS011;14353;46.070;13.222;2023-05-07T13:54:07;1.70;;;1.60;;
23376;SDS011;14353;46.070;13.222;2023-05-07T13:56:33;1.70;;;1.60;;
23376;SDS011;14353;46.070;13.222;2023-05-07T13:58:59;1.90;;;1.80;;
23376;SDS011;14353;46.070;13.222;2023-05-07T14:01:24;1.60;;;1.50;;
23376;SDS011;14353;46.070;13.222;2023-05-07T14:03:50;1.65;;;1.55;;
23376;SDS011;14353;46.070;13.222;2023-05-07T14:06:16;1.65;;;1.55;;
23376;SDS011;14353;46.070;13.222;2023-05-07T14:08:41;1.70;;;1.60;;
23376;SDS011;14353;46.070;13.222;2023-05-07T14:11:07;1.83;;;1.58;;
23376;SDS011;14353;46.070;13.222;2023-05-07T14:13:33;1.65;;;1.55;;
23376;SDS011;14353;46.070;13.222;2023-05-07T14:15:59;1.65;;;1.55;;
23376;SDS011;14353;46.070;13.222;2023-05-07T14:18:25;1.70;;;1.60;;
23376;SDS011;14353;46.070;13.222;2023-05-07T14:20:51;1.55;;;1.45;;
23376;SDS011;14353;46.070;13.222;2023-05-07T14:23:17;1.75;;;1.65;;
23376;SDS011;14353;46.070;13.222;2023-05-07T14:25:44;1.70;;;1.60;;
23376;SDS011;14353;46.070;13.222;2023-05-07T14:28:12;1.60;;;1.50;;
23376;SDS011;14353;46.070;13.222;2023-05-07T14:30:38;1.67;;;1.58;;
23376;SDS011;14353;46.070;13.222;2023-05-07T14:33:04;1.65;;;1.55;;
23376;SDS011;14353;46.070;13.222;2023-05-07T14:35:30;1.73;;;1.63;;
23376;SDS011;14353;46.070;13.222;2023-05-07T14:37:55;1.80;;;1.70;;
23376;SDS011;14353;46.070;13.222;2023-05-07T14:40:21;1.88;;;1.70;;
23376;SDS011;14353;46.070;13.222;2023-05-07T14:42:47;1.80;;;1.70;;
23376;SDS011;14353;46.070;13.222;2023-05-07T14:45:12;1.90;;;1.80;;
23376;SDS011;14353;46.070;13.222;2023-05-07T14:47:38;1.70;;;1.60;;
23376;SDS011;14353;46.070;13.222;2023-05-07T14:50:04;1.73;;;1.63;;
23376;SDS011;14353;46.070;13.222;2023-05-07T14:52:30;1.80;;;1.70;;
23376;SDS011;14353;46.070;13.222;2023-05-07T14:54:55;1.70;;;1.60;;
23376;SDS011;14353;46.070;13.222;2023-05-07T14:57:21;1.70;;;1.60;;
23376;SDS011;14353;46.070;13.222;2023-05-07T14:59:47;1.80;;;1.70;;
23376;SDS011;14353;46.070;13.222;2023-05-07T15:02:13;1.80;;;1.70;;